• Join FlightAware (Why Join?)
  • Login
  • US Flag 
 
12:10PM EST


 

Airport Tracker/Info


-or-


 

Live Flight TrackerFlight Track Log ✈ XOJ552 ✈ 08-May-2013 ✈ KBFI - KTRK

Flight Track Log - Related Links

Times and Time Zones

All times are in EDT time to prevent confusion due to time zone crossing. See the XOJ552 flight status page for this flight to view local times or setup timezone preferences in your user account.

Time Position Orientation Groundspeed Altitude Reporting Facility
EDT Latitude Longitude Course Direction KTS MPH feet Rate Location/Type
06:15PM 47.5172 -122.2914 168° South 168 193 1,300  Level Seattle Center
06:16PM 47.4739 -122.2514 148° Southeast 230 265 4,100 3,960 Climbing Seattle Center
06:17PM 47.3956 -122.2072 159° South 303 349 8,500 4,560 Climbing Seattle Center
06:18PM 47.3139 -122.1836 169° South 298 343 13,400 4,320 Climbing Seattle Center
06:19PM 47.2206 -122.1572 169° South 342 394 17,300 3,780 Climbing Seattle Center
06:20PM 47.1161 -122.1278 169° South 365 420 21,200 3,660 Climbing Seattle Center
06:21PM 46.8646 -122.1025 168° South  Level Estimated
06:21PM 47.0142 -122.0989 169° South 375 432 24,800  Level Seattle Center
06:22PM 46.9056 -122.0692 169° South 399 459 27,200 2,400 Climbing Seattle Center
06:23PM 46.7903 -122.0381 170° South 422 486 29,700 2,400 Climbing Seattle Center
06:24PM 46.6722 -122.0047 169° South 436 502 32,200 2,280 Climbing Seattle Center
06:25PM 46.5544 -121.9664 167° South 437 503 34,400 1,320 Climbing Seattle Center
06:26PM 46.4319 -121.9225 166° South 452 520 35,000 240 Climbing Seattle Center
06:27PM 46.3069 -121.8700 164° South 471 542 35,000  Level Seattle Center
06:28PM 46.1636 -121.8158 165° South 467 537 35,000  Level Seattle Center
06:29PM 46.0394 -121.7694 165° South 462 532 35,000 780 Level Seattle Center
06:30PM 45.9164 -121.7219 165° South 459 528 36,600 1,740 Climbing Seattle Center
06:31PM 45.7950 -121.6761 165° South 454 522 38,600 1,800 Climbing Seattle Center
06:32PM 45.6772 -121.6300 165° South 445 512 40,300 1,140 Climbing Seattle Center
06:33PM 45.5583 -121.5858 165° South 441 507 41,000 300 Climbing Seattle Center
06:34PM 45.4336 -121.5403 166° South 461 531 41,000  Level Seattle Center
06:35PM 45.3081 -121.4933 165° South 468 539 41,000  Level Seattle Center
06:36PM 45.1594 -121.4383 165° South 462 532 41,000  Level Seattle Center
06:37PM 45.0367 -121.3933 165° South 458 527 41,000  Level Seattle Center
06:38PM 44.9139 -121.3489 166° South 459 528 41,000  Level Seattle Center
06:39PM 44.7939 -121.3058 166° South 450 518 41,000  Level Seattle Center
06:40PM 44.6711 -121.2625 166° South 454 522 41,000  Level Seattle Center
06:41PM 44.5378 -121.2144 166° South 452 520 41,000  Level Seattle Center
06:42PM 44.4167 -121.1706 165° South 449 517 41,000  Level Seattle Center
06:44PM 44.3089 -121.1317 166° South 452 520 41,000  Level Seattle Center
06:45PM 44.1875 -121.0881 166° South 452 520 41,000  Level Seattle Center
06:46PM 44.0664 -121.0456 166° South 451 519 41,100 420 Climbing Seattle Center
06:47PM 43.9225 -120.9953 166° South 447 514 41,900 840 Climbing Seattle Center
06:48PM 43.8006 -120.9511 165° South 451 519 42,900 780 Climbing Seattle Center
06:49PM 43.6794 -120.9092 166° South 452 520 43,600 540 Climbing Seattle Center
06:50PM 43.5511 -120.8647 166° South 458 527 44,100 480 Climbing Seattle Center
06:51PM 43.4256 -120.8294 168° South 461 531 44,600 420 Climbing Seattle Center
06:52PM 43.3003 -120.7869 166° South 462 532 45,000 180 Climbing Seattle Center
06:53PM 43.1697 -120.7369 164° South 478 550 45,000  Level Seattle Center
06:54PM 43.0417 -120.6939 166° South 476 548 45,000  Level Seattle Center
06:55PM 42.9136 -120.6500 166° South 473 544 45,000  Level Seattle Center
06:56PM 42.7858 -120.6072 166° South 473 544 45,000  Level Seattle Center
06:57PM 42.6617 -120.5669 167° South 460 529 45,000  Level Seattle Center
06:58PM 42.5328 -120.5233 166° South 469 540 45,000  Level Seattle Center
06:59PM 42.4050 -120.4825 167° South 471 542 45,000  Level Seattle Center
07:00PM 42.2747 -120.4422 167° South 476 548 45,000  Level Seattle Center
07:01PM 42.1442 -120.4022 167° South 479 551 45,000  Level Seattle Center
07:02PM 42.0153 -120.3656 168° South 475 547 45,000  Level Seattle Center
07:03PM 41.8608 -120.3189 167° South 474 545 45,000  Level Seattle Center
07:04PM 41.7322 -120.2808 168° South 474 545 45,000  Level Seattle Center
07:05PM 41.6006 -120.2428 168° South 480 552 45,000  Level Seattle Center
07:06PM 41.4700 -120.2056 168° South 478 550 45,000  Level Seattle Center
07:07PM 41.3408 -120.1669 167° South 476 548 45,000  Level Seattle Center
07:08PM 41.2103 -120.1300 168° South 478 550 45,000 -480 Level Seattle Center
07:09PM 41.0831 -120.0903 167° South 472 543 44,100 -1,260 Descending Seattle Center
07:10PM 40.9569 -120.0569 169° South 462 532 42,500 -1,560 Descending Seattle Center
07:11PM 40.8328 -120.0208 168° South 457 526 41,000 -1,620 Descending Seattle Center
07:12PM 40.7067 -119.9844 168° South 463 533 39,500 -1,620 Descending Oakland Center
07:13PM 40.5792 -119.9483 168° South 467 537 38,000 -1,440 Descending Oakland Center
07:14PM 40.4589 -119.9161 168° South 467 537 36,600 -1,440 Descending Oakland Center
07:15PM 40.3336 -119.8800 168° South 461 531 35,100 -1,500 Descending Oakland Center
07:16PM 40.2036 -119.8439 168° South 473 544 33,600 -1,620 Descending Oakland Center
07:17PM 40.0464 -119.7989 168° South 482 555 31,800 -1,860 Descending Oakland Center
07:18PM 39.9169 -119.8200 187° South 466 536 29,900 -2,760 Descending Oakland Center
07:19PM 39.8131 -119.8969 210° Southwest 434 499 26,200 -3,360 Descending Oakland Center
07:21PM 39.6506 -120.0825 221° Southwest 382 440 19,700 -3,360 Descending Oakland Center
07:22PM 39.5494 -120.1569 210° Southwest 390 449 15,900 -3,000 Descending Oakland Center
07:23PM 39.4581 -120.2261 210° Southwest 383 441 13,700 -1,620 Descending Oakland Center
07:24PM 39.4047 -120.3019 228° Southwest 320 368 12,600 -1,200 Descending Oakland Center
07:25PM 39.4378 -120.3847 297° West 365 420 11,300 -660 Descending Oakland Center
07:26PM 39.4372 -120.4697 270° West 296 341 11,300  Level Oakland Center
07:27PM 39.4739 -120.5106 319° Northwest 279 321 11,300  Level Oakland Center
07:28PM 39.4650 -120.4461 100° East 243 280 11,300 -240 Level Oakland Center
07:29PM 39.4250 -120.3733 125° Southeast 230 265 10,900 -720 Descending Oakland Center
07:30PM 39.3914 -120.3019 121° Southeast 236 272 9,900 -1,020 Descending Oakland Center